createdAt,value
2019-01-30T00:01:24.806Z,8.05
2019-01-30T00:03:53.763Z,8.85
2019-01-30T00:06:22.570Z,8.50
2019-01-30T00:08:51.325Z,7.85
2019-01-30T00:11:20.099Z,9.08
2019-01-30T00:13:48.952Z,8.80
2019-01-30T00:16:17.763Z,8.35
2019-01-30T00:18:46.761Z,8.48
2019-01-30T00:21:15.557Z,8.05
2019-01-30T00:23:44.333Z,8.43
2019-01-30T00:26:13.162Z,8.83
2019-01-30T00:28:42.702Z,7.72
2019-01-30T00:31:12.485Z,8.35
2019-01-30T00:33:41.407Z,8.53
2019-01-30T00:36:10.282Z,8.40
2019-01-30T00:38:39.162Z,7.62
2019-01-30T00:41:08.026Z,8.28
2019-01-30T00:43:36.806Z,9.13
2019-01-30T00:46:07.697Z,8.13
2019-01-30T00:48:36.480Z,7.42
2019-01-30T00:51:06.478Z,7.80
2019-01-30T00:53:36.058Z,8.05
2019-01-30T00:56:05.247Z,8.58
2019-01-30T00:58:34.217Z,8.40
2019-01-30T01:01:03.180Z,7.97
2019-01-30T01:03:32.232Z,8.03
2019-01-30T01:06:02.236Z,8.18
2019-01-30T01:08:33.246Z,7.72
2019-01-30T01:11:02.338Z,8.28
2019-01-30T01:13:31.189Z,7.83
2019-01-30T01:16:06.034Z,8.08
2019-01-30T01:18:41.046Z,8.95
2019-01-30T01:21:19.826Z,8.15
2019-01-30T01:23:54.134Z,7.75
2019-01-30T01:26:32.115Z,8.03
2019-01-30T01:29:06.759Z,7.97
2019-01-30T01:31:35.851Z,8.05
2019-01-30T01:34:04.722Z,8.55
2019-01-30T01:36:33.762Z,8.00
2019-01-30T01:39:03.221Z,7.78
2019-01-30T01:41:32.381Z,8.63
2019-01-30T01:44:01.394Z,8.28
2019-01-30T01:46:30.198Z,8.70
2019-01-30T01:49:00.471Z,8.53
2019-01-30T01:51:30.189Z,9.75
2019-01-30T01:53:59.262Z,9.00
2019-01-30T01:56:28.026Z,8.55
2019-01-30T01:58:58.415Z,9.25
2019-01-30T02:01:27.418Z,9.28
2019-01-30T02:03:56.353Z,9.08
2019-01-30T02:06:25.374Z,9.58
2019-01-30T02:08:54.330Z,9.03
2019-01-30T02:11:23.150Z,9.15
2019-01-30T02:13:52.054Z,9.10
2019-01-30T02:19:06.668Z,9.28
2019-01-30T02:21:35.516Z,10.00
2019-01-30T02:24:04.418Z,9.78
2019-01-30T02:26:33.339Z,8.68
2019-01-30T02:29:02.522Z,9.15
2019-01-30T02:31:32.523Z,10.08
2019-01-30T02:34:01.441Z,10.05
2019-01-30T02:36:30.242Z,10.35
2019-01-30T02:38:58.971Z,9.78
2019-01-30T02:41:29.227Z,9.78
2019-01-30T02:43:57.971Z,9.95
2019-01-30T02:46:26.830Z,10.25
2019-01-30T02:48:55.792Z,10.00
2019-01-30T02:51:24.626Z,10.80
2019-01-30T02:53:53.606Z,10.70
2019-01-30T02:56:22.422Z,10.40
2019-01-30T02:58:51.342Z,11.55
2019-01-30T03:01:20.137Z,9.60
2019-01-30T03:03:49.168Z,9.80
2019-01-30T03:06:17.987Z,10.30
2019-01-30T03:08:46.982Z,11.03
2019-01-30T03:11:16.023Z,10.23
2019-01-30T03:13:44.937Z,10.32
2019-01-30T03:16:13.841Z,10.15
2019-01-30T03:18:42.719Z,9.50
2019-01-30T03:21:11.565Z,9.70
2019-01-30T03:23:40.494Z,11.30
2019-01-30T03:26:09.402Z,10.03
2019-01-30T03:28:38.453Z,11.10
2019-01-30T03:31:17.683Z,9.95
2019-01-30T03:33:37.846Z,11.00
2019-01-30T03:36:06.617Z,10.48
2019-01-30T03:38:36.611Z,10.40
2019-01-30T03:41:05.405Z,10.90
2019-01-30T03:43:34.178Z,10.85
2019-01-30T03:46:03.124Z,9.90
2019-01-30T03:48:32.028Z,11.95
2019-01-30T03:51:00.828Z,10.85
2019-01-30T03:53:32.162Z,10.75
2019-01-30T03:56:01.127Z,10.80
2019-01-30T03:58:29.926Z,11.00
2019-01-30T04:00:58.816Z,11.15
2019-01-30T04:03:27.936Z,12.10
2019-01-30T04:05:57.793Z,10.88
2019-01-30T04:08:26.669Z,11.53
2019-01-30T04:10:55.592Z,11.15
2019-01-30T04:13:24.520Z,12.20
2019-01-30T04:15:53.287Z,11.90
2019-01-30T04:18:22.109Z,11.48
2019-01-30T04:20:50.932Z,10.58
2019-01-30T04:23:19.759Z,12.13
2019-01-30T04:25:48.613Z,11.78
2019-01-30T04:28:17.577Z,10.85
2019-01-30T04:30:46.422Z,12.90
2019-01-30T04:33:15.662Z,12.37
2019-01-30T04:35:44.600Z,12.82
2019-01-30T04:38:13.402Z,12.73
2019-01-30T04:40:42.414Z,11.45
2019-01-30T04:43:11.262Z,12.30
2019-01-30T04:45:40.267Z,12.78
2019-01-30T04:48:09.486Z,12.85
2019-01-30T04:50:38.303Z,11.88
2019-01-30T04:53:07.281Z,12.58
2019-01-30T04:55:39.473Z,12.75
2019-01-30T04:58:08.325Z,12.53
2019-01-30T05:00:37.326Z,12.68
2019-01-30T05:03:06.295Z,13.05
2019-01-30T05:05:35.182Z,14.00
2019-01-30T05:08:04.051Z,13.72
2019-01-30T05:10:32.893Z,13.85
2019-01-30T05:13:01.793Z,13.48
2019-01-30T05:15:31.475Z,13.80
2019-01-30T05:18:00.366Z,14.80
2019-01-30T05:20:29.237Z,14.38
2019-01-30T05:22:58.238Z,15.30
2019-01-30T05:25:27.135Z,14.63
2019-01-30T05:27:55.997Z,15.38
2019-01-30T05:30:31.990Z,14.40
2019-01-30T05:33:00.850Z,15.32
2019-01-30T05:35:29.682Z,14.78
2019-01-30T05:37:58.634Z,14.55
2019-01-30T05:40:27.563Z,14.78
2019-01-30T05:42:56.362Z,14.43
2019-01-30T05:45:25.323Z,15.40
2019-01-30T05:47:55.779Z,14.90
2019-01-30T05:50:24.658Z,14.78
2019-01-30T05:52:53.490Z,14.80
2019-01-30T05:55:22.658Z,14.98
2019-01-30T05:57:51.510Z,15.43
2019-01-30T06:00:27.605Z,14.23
2019-01-30T06:02:56.587Z,14.87
2019-01-30T06:05:25.674Z,14.75
2019-01-30T06:07:54.855Z,15.78
2019-01-30T06:10:25.144Z,15.23
2019-01-30T06:12:54.385Z,15.98
2019-01-30T06:15:23.558Z,15.93
2019-01-30T06:17:52.487Z,14.75
2019-01-30T06:20:23.687Z,15.50
2019-01-30T06:22:52.798Z,15.88
2019-01-30T06:25:21.778Z,16.20
2019-01-30T06:27:53.504Z,14.55
2019-01-30T06:30:22.365Z,15.18
2019-01-30T06:32:51.202Z,16.82
2019-01-30T06:35:20.026Z,20.62
2019-01-30T06:37:49.129Z,17.32
2019-01-30T06:40:20.762Z,15.68
2019-01-30T06:42:51.047Z,15.72
2019-01-30T06:45:20.018Z,16.02
2019-01-30T06:47:48.935Z,15.48
2019-01-30T06:50:17.874Z,14.75
2019-01-30T06:52:46.582Z,15.28
2019-01-30T06:55:15.326Z,14.90
2019-01-30T06:57:44.139Z,14.25
2019-01-30T07:00:18.757Z,15.30
2019-01-30T07:02:47.525Z,14.55
2019-01-30T07:05:16.270Z,14.75
2019-01-30T07:07:48.146Z,15.05
2019-01-30T07:10:19.086Z,13.90
2019-01-30T07:12:47.814Z,14.80
2019-01-30T07:15:16.559Z,15.32
2019-01-30T07:17:45.373Z,14.70
2019-01-30T07:20:14.169Z,15.05
2019-01-30T07:22:43.049Z,15.18
2019-01-30T07:25:12.952Z,16.05
2019-01-30T07:27:41.684Z,15.23
2019-01-30T07:30:14.971Z,16.60
2019-01-30T07:32:43.678Z,16.12
2019-01-30T07:35:12.411Z,17.17
2019-01-30T07:37:41.138Z,14.47
2019-01-30T07:40:10.319Z,16.70
2019-01-30T07:42:39.022Z,16.45
2019-01-30T07:45:09.313Z,16.17
2019-01-30T07:47:38.066Z,16.65
2019-01-30T07:50:07.400Z,17.00
2019-01-30T07:52:36.216Z,16.87
2019-01-30T07:55:06.074Z,16.12
2019-01-30T07:57:34.878Z,16.80
2019-01-30T08:00:04.570Z,16.87
2019-01-30T08:02:33.365Z,16.45
2019-01-30T08:05:02.090Z,17.35
2019-01-30T08:07:30.821Z,17.00
2019-01-30T08:09:59.582Z,17.15
2019-01-30T08:12:28.293Z,16.87
2019-01-30T08:14:57.013Z,17.65
2019-01-30T08:17:25.838Z,17.05
2019-01-30T08:19:54.614Z,17.40
2019-01-30T08:22:26.146Z,17.57
2019-01-30T08:24:55.197Z,17.40
2019-01-30T08:27:24.002Z,19.07
2019-01-30T08:29:52.815Z,18.05
2019-01-30T08:32:22.357Z,19.57
2019-01-30T08:34:51.311Z,18.23
2019-01-30T08:37:20.043Z,17.80
2019-01-30T08:39:48.790Z,18.70
2019-01-30T08:42:17.662Z,19.30
2019-01-30T08:44:47.299Z,19.17
2019-01-30T08:47:16.214Z,19.48
2019-01-30T08:49:44.917Z,19.35
2019-01-30T08:52:13.655Z,19.75
2019-01-30T08:54:42.356Z,20.32
2019-01-30T08:57:13.206Z,19.87
2019-01-30T08:59:41.928Z,20.17
2019-01-30T09:02:10.627Z,21.17
2019-01-30T09:04:39.410Z,20.50
2019-01-30T09:07:08.128Z,19.07
2019-01-30T09:09:36.819Z,20.30
2019-01-30T09:12:05.602Z,20.12
2019-01-30T09:14:34.330Z,20.90
2019-01-30T09:17:08.072Z,20.97
2019-01-30T09:19:34.440Z,20.00
2019-01-30T09:22:03.201Z,20.50
2019-01-30T09:24:31.958Z,20.70
2019-01-30T09:27:00.660Z,20.57
2019-01-30T09:29:29.374Z,21.40
2019-01-30T09:31:58.074Z,20.77
2019-01-30T09:34:26.949Z,21.85
2019-01-30T09:36:55.721Z,22.87
2019-01-30T09:39:24.415Z,21.93
2019-01-30T09:41:53.130Z,23.18
2019-01-30T09:44:21.887Z,22.93
2019-01-30T09:46:50.681Z,22.52
2019-01-30T09:49:19.481Z,21.80
2019-01-30T09:51:48.300Z,22.45
2019-01-30T09:54:20.060Z,24.30
2019-01-30T09:56:48.877Z,22.50
2019-01-30T09:59:17.606Z,23.87
2019-01-30T10:01:47.550Z,23.65
2019-01-30T10:04:16.270Z,23.07
2019-01-30T10:06:45.071Z,23.30
2019-01-30T10:09:13.789Z,22.70
2019-01-30T10:11:44.351Z,22.40
2019-01-30T10:14:13.081Z,20.10
2019-01-30T10:16:42.802Z,22.60
2019-01-30T10:19:11.501Z,22.65
2019-01-30T10:21:40.277Z,27.90
2019-01-30T10:24:08.978Z,22.10
2019-01-30T10:26:37.682Z,24.15
2019-01-30T10:29:06.410Z,25.92
2019-01-30T10:31:37.410Z,24.80
2019-01-30T10:34:06.131Z,25.50
2019-01-30T10:36:34.861Z,26.37
2019-01-30T10:39:05.183Z,26.62
2019-01-30T10:41:33.901Z,26.75
2019-01-30T10:44:02.716Z,28.25
2019-01-30T10:46:31.554Z,28.02
2019-01-30T10:49:00.276Z,28.77
2019-01-30T10:51:29.013Z,29.95
2019-01-30T10:53:57.830Z,27.60
2019-01-30T10:56:26.548Z,30.97
2019-01-30T10:58:55.340Z,30.37
2019-01-30T11:01:24.093Z,29.67
2019-01-30T11:03:57.394Z,30.95
2019-01-30T11:06:23.702Z,31.77
2019-01-30T11:08:52.628Z,32.63
2019-01-30T11:11:21.332Z,34.03
2019-01-30T11:13:50.050Z,33.00
2019-01-30T11:16:18.826Z,31.62
2019-01-30T11:18:47.586Z,30.00
2019-01-30T11:21:16.369Z,30.35
2019-01-30T11:23:45.973Z,32.83
2019-01-30T11:26:14.764Z,31.73
2019-01-30T11:28:43.478Z,31.45
2019-01-30T11:31:12.275Z,33.92
2019-01-30T11:33:41.072Z,32.28
2019-01-30T11:36:09.796Z,31.70
2019-01-30T11:38:38.559Z,30.75
2019-01-30T11:41:07.333Z,30.57
2019-01-30T11:43:36.050Z,31.70
2019-01-30T11:46:04.845Z,31.42
2019-01-30T11:48:33.595Z,33.18
2019-01-30T11:51:02.334Z,30.43
2019-01-30T11:53:31.054Z,34.00
2019-01-30T11:55:59.791Z,35.17
2019-01-30T11:58:28.617Z,36.00
2019-01-30T12:00:59.574Z,34.30
2019-01-30T12:03:28.342Z,35.15
2019-01-30T12:05:57.218Z,35.60
2019-01-30T12:08:25.972Z,34.10
2019-01-30T12:10:54.707Z,34.83
2019-01-30T12:13:24.290Z,34.53
2019-01-30T12:15:53.129Z,34.65
2019-01-30T12:18:21.894Z,35.13
2019-01-30T12:20:51.957Z,34.65
2019-01-30T12:23:21.211Z,33.85
2019-01-30T12:25:50.236Z,33.85
2019-01-30T12:28:18.974Z,36.25
2019-01-30T12:30:47.694Z,36.42
2019-01-30T12:33:16.457Z,34.27
2019-01-30T12:35:45.194Z,30.85
2019-01-30T12:38:14.030Z,28.60
2019-01-30T12:40:42.759Z,31.40
2019-01-30T12:43:11.518Z,31.12
2019-01-30T12:45:40.262Z,31.75
2019-01-30T12:48:10.782Z,30.95
2019-01-30T12:50:39.789Z,31.30
2019-01-30T12:53:08.602Z,30.52
2019-01-30T12:55:37.318Z,29.40
2019-01-30T12:58:06.046Z,28.77
2019-01-30T13:00:36.930Z,28.12
2019-01-30T13:03:05.739Z,29.75
2019-01-30T13:05:34.487Z,26.87
2019-01-30T13:08:03.197Z,25.25
2019-01-30T13:10:32.954Z,25.20
2019-01-30T13:13:01.754Z,23.45
2019-01-30T13:15:30.474Z,24.18
2019-01-30T13:17:59.262Z,22.65
2019-01-30T13:20:27.976Z,22.87
2019-01-30T13:22:56.776Z,21.20
2019-01-30T13:25:30.561Z,19.52
2019-01-30T13:27:59.523Z,20.32
2019-01-30T13:30:30.943Z,19.45
2019-01-30T13:33:00.299Z,22.13
2019-01-30T13:35:29.165Z,21.35
2019-01-30T13:37:57.922Z,20.62
2019-01-30T13:40:28.926Z,22.50
2019-01-30T13:42:58.323Z,18.98
2019-01-30T13:45:28.620Z,19.32
2019-01-30T13:48:01.084Z,20.20
2019-01-30T13:50:31.171Z,17.73
2019-01-30T13:53:00.801Z,17.95
2019-01-30T13:55:30.055Z,17.37
2019-01-30T13:57:59.018Z,15.03
2019-01-30T14:00:32.861Z,16.42
2019-01-30T14:03:01.711Z,16.90
2019-01-30T14:05:31.031Z,15.35
2019-01-30T14:07:59.825Z,15.48
2019-01-30T14:10:29.477Z,14.50
2019-01-30T14:13:01.186Z,13.55
2019-01-30T14:16:17.586Z,14.50
2019-01-30T14:18:46.540Z,14.60
2019-01-30T14:21:15.352Z,13.03
2019-01-30T14:23:48.777Z,12.13
2019-01-30T14:26:18.558Z,12.40
2019-01-30T14:28:48.139Z,12.63
2019-01-30T14:31:16.879Z,12.40
2019-01-30T14:33:48.887Z,12.00
2019-01-30T14:36:17.766Z,10.85
2019-01-30T14:38:46.683Z,11.33
2019-01-30T14:41:15.424Z,11.83
2019-01-30T14:43:44.222Z,12.35
2019-01-30T14:46:13.033Z,13.18
2019-01-30T14:48:41.927Z,13.68
2019-01-30T14:51:16.536Z,13.03
2019-01-30T14:53:45.414Z,12.68
2019-01-30T14:56:14.244Z,14.25
2019-01-30T14:58:43.042Z,15.43
2019-01-30T15:01:11.864Z,15.40
2019-01-30T15:03:40.705Z,13.48
2019-01-30T15:06:09.495Z,14.50
2019-01-30T15:08:38.330Z,13.88
2019-01-30T15:11:07.098Z,15.20
2019-01-30T15:13:35.928Z,14.87
2019-01-30T15:16:05.089Z,15.83
2019-01-30T15:18:33.934Z,15.13
2019-01-30T15:21:02.732Z,15.28
2019-01-30T15:23:31.654Z,15.43
2019-01-30T15:26:00.419Z,14.80
2019-01-30T15:28:29.186Z,15.40
2019-01-30T15:30:57.992Z,15.08
2019-01-30T15:33:26.758Z,16.65
2019-01-30T15:35:55.630Z,16.95
2019-01-30T15:38:24.429Z,19.45
2019-01-30T15:40:55.303Z,17.82
2019-01-30T15:43:24.078Z,16.87
2019-01-30T15:45:53.776Z,17.50
2019-01-30T15:48:22.554Z,17.77
2019-01-30T15:50:51.270Z,17.00
2019-01-30T15:53:22.035Z,16.85
2019-01-30T15:55:51.042Z,15.83
2019-01-30T15:58:19.762Z,16.05
2019-01-30T16:00:54.334Z,16.93
2019-01-30T16:03:23.110Z,16.60
2019-01-30T16:05:51.902Z,18.15
2019-01-30T16:08:20.933Z,17.80
2019-01-30T16:10:49.723Z,17.35
2019-01-30T16:13:18.448Z,16.55
2019-01-30T16:15:58.931Z,16.55
2019-01-30T16:18:27.686Z,15.80
2019-01-30T16:20:59.629Z,16.23
2019-01-30T16:23:28.442Z,17.57
2019-01-30T16:25:57.217Z,18.60
2019-01-30T16:28:26.079Z,17.80
2019-01-30T16:30:55.143Z,17.45
2019-01-30T16:33:23.882Z,16.67
2019-01-30T16:35:56.201Z,17.75
2019-01-30T16:38:23.146Z,18.17
2019-01-30T16:40:51.938Z,16.70
2019-01-30T16:43:31.621Z,19.25
2019-01-30T16:46:00.328Z,17.23
2019-01-30T16:48:32.889Z,20.15
2019-01-30T16:51:01.725Z,17.80
2019-01-30T16:53:30.455Z,19.02
2019-01-30T16:55:59.289Z,19.37
2019-01-30T16:58:28.122Z,19.05
2019-01-30T17:00:56.862Z,20.35
2019-01-30T17:03:25.606Z,21.33
2019-01-30T17:05:54.359Z,20.82
2019-01-30T17:08:23.097Z,19.35
2019-01-30T17:10:51.830Z,20.45
2019-01-30T17:13:20.686Z,20.15
2019-01-30T17:15:49.537Z,17.40
2019-01-30T17:18:18.337Z,19.35
2019-01-30T17:20:47.173Z,19.73
2019-01-30T17:23:16.067Z,19.23
2019-01-30T17:25:44.830Z,20.82
2019-01-30T17:28:13.638Z,20.43
2019-01-30T17:30:54.878Z,18.60
2019-01-30T17:33:23.633Z,18.67
2019-01-30T17:35:53.883Z,20.15
2019-01-30T17:38:52.805Z,18.85
2019-01-30T17:41:02.979Z,18.75
2019-01-30T17:43:31.719Z,19.62
2019-01-30T17:46:00.461Z,15.03
2019-01-30T17:48:36.806Z,14.03
2019-01-30T17:51:05.660Z,13.32
2019-01-30T17:53:34.464Z,11.15
2019-01-30T17:56:03.463Z,11.28
2019-01-30T17:58:34.362Z,8.78
2019-01-30T18:01:03.257Z,8.85
2019-01-30T18:03:32.169Z,7.70
2019-01-30T18:06:00.914Z,7.53
2019-01-30T18:08:30.687Z,6.87
2019-01-30T18:11:16.270Z,6.35
2019-01-30T18:13:49.833Z,5.37
2019-01-30T18:16:18.686Z,4.58
2019-01-30T18:18:49.109Z,3.92
2019-01-30T18:21:17.954Z,3.95
2019-01-30T18:23:46.674Z,3.50
2019-01-30T18:26:15.395Z,3.33
2019-01-30T18:28:44.126Z,3.35
2019-01-30T18:31:12.872Z,2.80
2019-01-30T18:33:41.651Z,2.55
2019-01-30T18:36:10.432Z,2.72
2019-01-30T18:38:39.329Z,2.83
2019-01-30T18:41:08.188Z,2.87
2019-01-30T18:43:45.457Z,2.70
2019-01-30T18:46:14.457Z,3.17
2019-01-30T18:48:43.185Z,3.33
2019-01-30T18:51:11.904Z,3.45
2019-01-30T18:53:40.627Z,3.25
2019-01-30T18:56:15.183Z,2.67
2019-01-30T18:58:43.962Z,2.50
2019-01-30T19:01:12.734Z,2.25
2019-01-30T19:03:41.480Z,2.65
2019-01-30T19:06:10.654Z,3.15
2019-01-30T19:08:39.438Z,3.12
2019-01-30T19:11:08.226Z,3.40
2019-01-30T19:13:39.560Z,3.90
2019-01-30T19:16:07.422Z,3.83
2019-01-30T19:18:36.154Z,3.65
2019-01-30T19:21:04.975Z,3.67
2019-01-30T19:23:33.896Z,3.98
2019-01-30T19:26:02.836Z,4.20
2019-01-30T19:28:31.623Z,2.47
2019-01-30T19:31:00.473Z,1.70
2019-01-30T19:33:29.278Z,1.60
2019-01-30T19:35:58.135Z,1.50
2019-01-30T19:38:27.010Z,1.87
2019-01-30T19:40:58.345Z,2.37
2019-01-30T19:43:27.271Z,2.65
2019-01-30T19:45:57.006Z,2.45
2019-01-30T19:48:25.966Z,2.67
2019-01-30T19:50:54.750Z,2.27
2019-01-30T19:53:23.491Z,2.67
2019-01-30T19:55:52.220Z,2.52
2019-01-30T19:58:21.001Z,3.27
2019-01-30T20:00:49.862Z,3.40
2019-01-30T20:03:31.334Z,3.42
2019-01-30T20:06:00.318Z,3.33
2019-01-30T20:08:29.151Z,3.52
2019-01-30T20:11:02.568Z,3.33
2019-01-30T20:13:31.321Z,3.52
2019-01-30T20:16:00.412Z,3.50
2019-01-30T20:18:29.487Z,3.60
2019-01-30T20:20:58.359Z,3.45
2019-01-30T20:23:27.345Z,3.30
2019-01-30T20:25:56.589Z,2.90
2019-01-30T20:28:25.470Z,3.27
2019-01-30T20:30:56.490Z,3.22
2019-01-30T20:33:25.323Z,2.62
2019-01-30T20:35:54.234Z,2.25
2019-01-30T20:38:23.346Z,2.45
2019-01-30T20:40:52.194Z,3.45
2019-01-30T20:43:25.557Z,2.83
2019-01-30T20:45:51.799Z,1.87
2019-01-30T20:48:21.782Z,2.25
2019-01-30T20:50:50.583Z,2.22
2019-01-30T20:53:19.566Z,2.62
2019-01-30T20:55:48.492Z,2.83
2019-01-30T20:58:17.790Z,2.33
2019-01-30T21:00:46.812Z,2.50
2019-01-30T21:03:15.915Z,2.67
2019-01-30T21:05:45.159Z,2.50
2019-01-30T21:08:14.091Z,2.00
2019-01-30T21:10:43.005Z,1.70
2019-01-30T21:13:12.301Z,1.70
2019-01-30T21:15:41.145Z,2.42
2019-01-30T21:18:09.982Z,1.90
2019-01-30T21:20:38.888Z,2.25
2019-01-30T21:23:07.750Z,2.50
2019-01-30T21:25:36.920Z,2.90
2019-01-30T21:28:05.732Z,3.83
2019-01-30T21:30:36.262Z,2.70
2019-01-30T21:33:05.167Z,3.40
2019-01-30T21:35:34.129Z,3.20
2019-01-30T21:38:03.174Z,3.00
2019-01-30T21:40:31.976Z,3.10
2019-01-30T21:43:00.745Z,2.50
2019-01-30T21:45:29.540Z,2.92
2019-01-30T21:47:58.327Z,2.80
2019-01-30T21:50:27.303Z,3.17
2019-01-30T21:52:57.102Z,3.20
2019-01-30T21:55:25.934Z,2.72
2019-01-30T21:57:54.812Z,3.75
2019-01-30T22:00:25.563Z,2.98
2019-01-30T22:02:54.398Z,3.17
2019-01-30T22:05:23.237Z,3.62
2019-01-30T22:08:00.723Z,4.45
2019-01-30T22:10:27.371Z,3.90
2019-01-30T22:12:56.238Z,4.97
2019-01-30T22:15:25.004Z,5.17
2019-01-30T22:17:53.956Z,6.80
2019-01-30T22:20:24.116Z,6.67
2019-01-30T22:22:53.030Z,6.40
2019-01-30T22:25:22.066Z,6.67
2019-01-30T22:27:50.889Z,7.17
2019-01-30T22:30:24.768Z,6.28
2019-01-30T22:32:53.525Z,7.35
2019-01-30T22:35:22.350Z,7.97
2019-01-30T22:37:51.199Z,7.53
2019-01-30T22:40:20.038Z,8.48
2019-01-30T22:42:48.882Z,9.33
2019-01-30T22:45:18.371Z,8.88
2019-01-30T22:47:48.142Z,9.55
2019-01-30T22:50:16.937Z,8.95
2019-01-30T22:52:45.698Z,7.15
2019-01-30T22:55:16.270Z,8.05
2019-01-30T22:57:45.033Z,7.47
2019-01-30T23:00:25.872Z,7.55
2019-01-30T23:02:54.706Z,7.15
2019-01-30T23:05:57.058Z,6.70
2019-01-30T23:09:04.646Z,5.87
2019-01-30T23:12:00.549Z,6.92
2019-01-30T23:14:41.091Z,7.72
2019-01-30T23:17:50.454Z,8.30
2019-01-30T23:20:33.371Z,8.63
2019-01-30T23:23:55.479Z,8.28
2019-01-30T23:26:54.783Z,8.13
2019-01-30T23:30:28.053Z,7.97
2019-01-30T23:33:20.665Z,7.05
2019-01-30T23:36:23.397Z,7.37
2019-01-30T23:39:38.646Z,8.30
2019-01-30T23:42:53.530Z,8.28
2019-01-30T23:45:45.326Z,9.28
2019-01-30T23:48:50.126Z,8.73
2019-01-30T23:52:09.482Z,8.85
2019-01-30T23:55:05.470Z,7.72
2019-01-30T23:58:07.589Z,8.63
